sensor_id;sensor_type;location;lat;lon;timestamp;pressure;altitude;pressure_sealevel;temperature;humidity
49645;BME280;36494;50.730;-1.932;2024-02-15T00:01:43;100752.16;;;11.61;100.00
49645;BME280;36494;50.730;-1.932;2024-02-15T00:04:09;100754.04;;;11.58;100.00
49645;BME280;36494;50.730;-1.932;2024-02-15T00:06:34;100750.24;;;11.67;100.00
49645;BME280;36494;50.730;-1.932;2024-02-15T00:09:00;100748.83;;;11.68;100.00
49645;BME280;36494;50.730;-1.932;2024-02-15T00:11:25;100746.12;;;11.66;100.00
49645;BME280;36494;50.730;-1.932;2024-02-15T00:13:51;100745.54;;;11.70;100.00
49645;BME280;36494;50.730;-1.932;2024-02-15T00:16:16;100749.92;;;11.67;100.00
49645;BME280;36494;50.730;-1.932;2024-02-15T00:18:42;100744.86;;;11.69;100.00
49645;BME280;36494;50.730;-1.932;2024-02-15T00:21:07;100747.55;;;11.74;100.00
49645;BME280;36494;50.730;-1.932;2024-02-15T00:23:34;100746.78;;;11.73;100.00
49645;BME280;36494;50.730;-1.932;2024-02-15T00:25:59;100746.53;;;11.70;100.00
49645;BME280;36494;50.730;-1.932;2024-02-15T00:28:25;100739.17;;;11.73;100.00
49645;BME280;36494;50.730;-1.932;2024-02-15T00:30:50;100737.21;;;11.72;100.00
49645;BME280;36494;50.730;-1.932;2024-02-15T00:33:16;100742.34;;;11.73;100.00
49645;BME280;36494;50.730;-1.932;2024-02-15T00:35:41;100739.58;;;11.73;100.00
49645;BME280;36494;50.730;-1.932;2024-02-15T00:38:07;100737.44;;;11.69;100.00
49645;BME280;36494;50.730;-1.932;2024-02-15T00:40:32;100727.65;;;11.73;100.00
49645;BME280;36494;50.730;-1.932;2024-02-15T00:42:58;100723.05;;;11.71;100.00
49645;BME280;36494;50.730;-1.932;2024-02-15T00:45:23;100727.19;;;11.74;100.00
49645;BME280;36494;50.730;-1.932;2024-02-15T00:47:50;100724.87;;;11.73;100.00
49645;BME280;36494;50.730;-1.932;2024-02-15T00:50:16;100718.48;;;11.74;100.00
49645;BME280;36494;50.730;-1.932;2024-02-15T00:52:40;100717.93;;;11.76;100.00
49645;BME280;36494;50.730;-1.932;2024-02-15T00:55:06;100716.83;;;11.76;100.00
49645;BME280;36494;50.730;-1.932;2024-02-15T00:57:31;100707.90;;;11.72;100.00
49645;BME280;36494;50.730;-1.932;2024-02-15T00:59:57;100713.36;;;11.76;100.00
49645;BME280;36494;50.730;-1.932;2024-02-15T01:02:22;100718.86;;;11.76;100.00
49645;BME280;36494;50.730;-1.932;2024-02-15T01:04:49;100714.26;;;11.74;100.00
49645;BME280;36494;50.730;-1.932;2024-02-15T01:07:13;100715.12;;;11.77;100.00
49645;BME280;36494;50.730;-1.932;2024-02-15T01:09:39;100717.01;;;11.82;100.00
49645;BME280;36494;50.730;-1.932;2024-02-15T01:12:05;100715.92;;;11.83;100.00
49645;BME280;36494;50.730;-1.932;2024-02-15T01:14:31;100711.70;;;11.81;100.00
49645;BME280;36494;50.730;-1.932;2024-02-15T01:17:00;100709.52;;;11.84;100.00
49645;BME280;36494;50.730;-1.932;2024-02-15T01:19:22;100710.79;;;11.87;100.00
49645;BME280;36494;50.730;-1.932;2024-02-15T01:21:48;100705.02;;;11.86;100.00
49645;BME280;36494;50.730;-1.932;2024-02-15T01:24:13;100708.41;;;11.83;100.00
49645;BME280;36494;50.730;-1.932;2024-02-15T01:26:39;100711.11;;;11.87;100.00
49645;BME280;36494;50.730;-1.932;2024-02-15T01:29:04;100705.15;;;11.86;100.00
49645;BME280;36494;50.730;-1.932;2024-02-15T01:31:30;100702.53;;;11.91;100.00
49645;BME280;36494;50.730;-1.932;2024-02-15T01:33:56;100700.55;;;11.93;100.00
49645;BME280;36494;50.730;-1.932;2024-02-15T01:36:21;100702.74;;;11.97;100.00
49645;BME280;36494;50.730;-1.932;2024-02-15T01:38:46;100702.09;;;12.04;100.00
49645;BME280;36494;50.730;-1.932;2024-02-15T01:41:12;100700.82;;;12.03;100.00
49645;BME280;36494;50.730;-1.932;2024-02-15T01:43:37;100698.43;;;12.08;100.00
49645;BME280;36494;50.730;-1.932;2024-02-15T01:46:08;100697.07;;;12.04;100.00
49645;BME280;36494;50.730;-1.932;2024-02-15T01:48:29;100698.22;;;12.05;100.00
49645;BME280;36494;50.730;-1.932;2024-02-15T01:50:54;100694.74;;;12.19;100.00
49645;BME280;36494;50.730;-1.932;2024-02-15T01:53:20;100693.52;;;12.18;100.00
49645;BME280;36494;50.730;-1.932;2024-02-15T01:55:45;100690.78;;;12.22;100.00
49645;BME280;36494;50.730;-1.932;2024-02-15T01:58:10;100696.77;;;12.19;100.00
49645;BME280;36494;50.730;-1.932;2024-02-15T02:00:37;100691.02;;;12.21;100.00
49645;BME280;36494;50.730;-1.932;2024-02-15T02:03:05;100692.46;;;12.23;100.00
49645;BME280;36494;50.730;-1.932;2024-02-15T02:05:30;100689.74;;;12.17;100.00
49645;BME280;36494;50.730;-1.932;2024-02-15T02:07:52;100682.75;;;12.18;100.00
49645;BME280;36494;50.730;-1.932;2024-02-15T02:10:17;100688.37;;;12.18;100.00
49645;BME280;36494;50.730;-1.932;2024-02-15T02:12:42;100684.04;;;12.17;100.00
49645;BME280;36494;50.730;-1.932;2024-02-15T02:15:08;100679.43;;;12.18;100.00
49645;BME280;36494;50.730;-1.932;2024-02-15T02:17:33;100676.59;;;12.25;100.00
49645;BME280;36494;50.730;-1.932;2024-02-15T02:19:58;100671.84;;;12.29;100.00
49645;BME280;36494;50.730;-1.932;2024-02-15T02:22:24;100671.40;;;12.34;100.00
49645;BME280;36494;50.730;-1.932;2024-02-15T02:24:57;100675.29;;;12.38;100.00
49645;BME280;36494;50.730;-1.932;2024-02-15T02:27:15;100671.14;;;12.37;100.00
49645;BME280;36494;50.730;-1.932;2024-02-15T02:29:43;100672.15;;;12.36;100.00
49645;BME280;36494;50.730;-1.932;2024-02-15T02:32:05;100672.46;;;12.41;100.00
49645;BME280;36494;50.730;-1.932;2024-02-15T02:34:30;100674.70;;;12.42;100.00
49645;BME280;36494;50.730;-1.932;2024-02-15T02:36:56;100666.77;;;12.47;100.00
49645;BME280;36494;50.730;-1.932;2024-02-15T02:39:21;100657.55;;;12.40;100.00
49645;BME280;36494;50.730;-1.932;2024-02-15T02:41:46;100657.86;;;12.47;100.00
49645;BME280;36494;50.730;-1.932;2024-02-15T02:44:11;100659.41;;;12.39;100.00
49645;BME280;36494;50.730;-1.932;2024-02-15T02:46:37;100651.19;;;12.45;100.00
49645;BME280;36494;50.730;-1.932;2024-02-15T02:49:02;100651.27;;;12.45;100.00
49645;BME280;36494;50.730;-1.932;2024-02-15T02:51:27;100658.68;;;12.48;100.00
49645;BME280;36494;50.730;-1.932;2024-02-15T02:53:57;100656.93;;;12.51;100.00
49645;BME280;36494;50.730;-1.932;2024-02-15T02:56:19;100651.93;;;12.49;100.00
49645;BME280;36494;50.730;-1.932;2024-02-15T02:58:45;100649.20;;;12.49;100.00
49645;BME280;36494;50.730;-1.932;2024-02-15T03:01:10;100647.45;;;12.49;100.00
49645;BME280;36494;50.730;-1.932;2024-02-15T03:03:36;100644.75;;;12.50;100.00
49645;BME280;36494;50.730;-1.932;2024-02-15T03:06:03;100644.57;;;12.51;100.00
49645;BME280;36494;50.730;-1.932;2024-02-15T03:08:27;100642.78;;;12.42;100.00
49645;BME280;36494;50.730;-1.932;2024-02-15T03:10:52;100649.34;;;12.50;100.00
49645;BME280;36494;50.730;-1.932;2024-02-15T03:13:18;100648.64;;;12.55;100.00
49645;BME280;36494;50.730;-1.932;2024-02-15T03:15:44;100646.17;;;12.52;100.00
49645;BME280;36494;50.730;-1.932;2024-02-15T03:18:12;100642.26;;;12.58;100.00
49645;BME280;36494;50.730;-1.932;2024-02-15T03:20:37;100637.58;;;12.54;100.00
49645;BME280;36494;50.730;-1.932;2024-02-15T03:23:00;100632.37;;;12.51;100.00
49645;BME280;36494;50.730;-1.932;2024-02-15T03:25:27;100627.15;;;12.49;100.00
49645;BME280;36494;50.730;-1.932;2024-02-15T03:27:52;100629.88;;;12.48;100.00
49645;BME280;36494;50.730;-1.932;2024-02-15T03:30:18;100627.31;;;12.36;100.00
49645;BME280;36494;50.730;-1.932;2024-02-15T03:32:43;100623.84;;;12.43;100.00
49645;BME280;36494;50.730;-1.932;2024-02-15T03:35:08;100618.18;;;12.41;100.00
49645;BME280;36494;50.730;-1.932;2024-02-15T03:37:34;100609.60;;;12.39;100.00
49645;BME280;36494;50.730;-1.932;2024-02-15T03:39:59;100603.47;;;12.36;100.00
49645;BME280;36494;50.730;-1.932;2024-02-15T03:42:24;100602.87;;;12.38;100.00
49645;BME280;36494;50.730;-1.932;2024-02-15T03:44:50;100602.19;;;12.39;100.00
49645;BME280;36494;50.730;-1.932;2024-02-15T03:47:15;100595.39;;;12.38;100.00
49645;BME280;36494;50.730;-1.932;2024-02-15T03:49:41;100595.59;;;12.39;100.00
49645;BME280;36494;50.730;-1.932;2024-02-15T03:52:06;100592.44;;;12.36;100.00
49645;BME280;36494;50.730;-1.932;2024-02-15T03:54:32;100592.57;;;12.39;100.00
49645;BME280;36494;50.730;-1.932;2024-02-15T03:56:57;100590.59;;;12.37;100.00
49645;BME280;36494;50.730;-1.932;2024-02-15T03:59:23;100586.29;;;12.37;100.00
49645;BME280;36494;50.730;-1.932;2024-02-15T04:01:49;100585.15;;;12.35;100.00
49645;BME280;36494;50.730;-1.932;2024-02-15T04:04:14;100580.75;;;12.39;100.00
49645;BME280;36494;50.730;-1.932;2024-02-15T04:06:41;100583.30;;;12.42;100.00
49645;BME280;36494;50.730;-1.932;2024-02-15T04:09:05;100578.55;;;12.42;100.00
49645;BME280;36494;50.730;-1.932;2024-02-15T04:11:31;100577.73;;;12.41;100.00
49645;BME280;36494;50.730;-1.932;2024-02-15T04:13:56;100578.04;;;12.36;100.00
49645;BME280;36494;50.730;-1.932;2024-02-15T04:16:21;100577.28;;;12.37;100.00
49645;BME280;36494;50.730;-1.932;2024-02-15T04:18:50;100578.55;;;12.35;100.00
49645;BME280;36494;50.730;-1.932;2024-02-15T04:21:12;100577.50;;;12.34;100.00
49645;BME280;36494;50.730;-1.932;2024-02-15T04:23:38;100577.56;;;12.32;100.00
49645;BME280;36494;50.730;-1.932;2024-02-15T04:26:04;100574.15;;;12.28;100.00
49645;BME280;36494;50.730;-1.932;2024-02-15T04:28:30;100568.62;;;12.20;100.00
49645;BME280;36494;50.730;-1.932;2024-02-15T04:30:55;100567.93;;;12.19;100.00
49645;BME280;36494;50.730;-1.932;2024-02-15T04:33:20;100571.29;;;12.12;100.00
49645;BME280;36494;50.730;-1.932;2024-02-15T04:35:46;100573.83;;;11.96;100.00
49645;BME280;36494;50.730;-1.932;2024-02-15T04:38:11;100570.89;;;11.95;100.00
49645;BME280;36494;50.730;-1.932;2024-02-15T04:40:36;100577.88;;;11.95;100.00
49645;BME280;36494;50.730;-1.932;2024-02-15T04:43:02;100580.69;;;11.86;100.00
49645;BME280;36494;50.730;-1.932;2024-02-15T04:45:27;100577.36;;;11.85;100.00
49645;BME280;36494;50.730;-1.932;2024-02-15T04:47:52;100577.86;;;11.86;100.00
49645;BME280;36494;50.730;-1.932;2024-02-15T04:50:18;100577.63;;;11.71;100.00
49645;BME280;36494;50.730;-1.932;2024-02-15T04:52:43;100573.06;;;11.74;100.00
49645;BME280;36494;50.730;-1.932;2024-02-15T04:55:08;100572.19;;;11.64;100.00
49645;BME280;36494;50.730;-1.932;2024-02-15T04:57:34;100570.75;;;11.67;100.00
49645;BME280;36494;50.730;-1.932;2024-02-15T04:59:59;100570.24;;;11.61;100.00
49645;BME280;36494;50.730;-1.932;2024-02-15T05:02:25;100571.93;;;11.56;100.00
49645;BME280;36494;50.730;-1.932;2024-02-15T05:04:50;100570.09;;;11.55;100.00
49645;BME280;36494;50.730;-1.932;2024-02-15T05:07:15;100566.88;;;11.53;100.00
49645;BME280;36494;50.730;-1.932;2024-02-15T05:09:41;100565.31;;;11.56;100.00
49645;BME280;36494;50.730;-1.932;2024-02-15T05:12:06;100563.21;;;11.54;100.00
49645;BME280;36494;50.730;-1.932;2024-02-15T05:14:31;100561.05;;;11.53;100.00
49645;BME280;36494;50.730;-1.932;2024-02-15T05:16:57;100556.93;;;11.49;100.00
49645;BME280;36494;50.730;-1.932;2024-02-15T05:19:23;100561.35;;;11.44;100.00
49645;BME280;36494;50.730;-1.932;2024-02-15T05:21:48;100563.22;;;11.39;100.00
49645;BME280;36494;50.730;-1.932;2024-02-15T05:24:14;100558.68;;;11.33;100.00
49645;BME280;36494;50.730;-1.932;2024-02-15T05:26:39;100552.71;;;11.31;100.00
49645;BME280;36494;50.730;-1.932;2024-02-15T05:29:04;100549.81;;;11.30;100.00
49645;BME280;36494;50.730;-1.932;2024-02-15T05:31:30;100544.76;;;11.36;100.00
49645;BME280;36494;50.730;-1.932;2024-02-15T05:33:56;100543.16;;;11.34;100.00
49645;BME280;36494;50.730;-1.932;2024-02-15T05:36:22;100545.85;;;11.32;100.00
49645;BME280;36494;50.730;-1.932;2024-02-15T05:38:48;100547.03;;;11.36;100.00
49645;BME280;36494;50.730;-1.932;2024-02-15T05:41:13;100543.98;;;11.33;100.00
49645;BME280;36494;50.730;-1.932;2024-02-15T05:43:39;100541.04;;;11.37;100.00
49645;BME280;36494;50.730;-1.932;2024-02-15T05:46:04;100544.18;;;11.36;100.00
49645;BME280;36494;50.730;-1.932;2024-02-15T05:48:29;100541.20;;;11.36;100.00
49645;BME280;36494;50.730;-1.932;2024-02-15T05:50:55;100540.52;;;11.38;100.00
49645;BME280;36494;50.730;-1.932;2024-02-15T05:53:20;100539.34;;;11.38;100.00
49645;BME280;36494;50.730;-1.932;2024-02-15T05:55:48;100532.69;;;11.35;100.00
49645;BME280;36494;50.730;-1.932;2024-02-15T05:58:12;100531.59;;;11.33;100.00
49645;BME280;36494;50.730;-1.932;2024-02-15T06:00:37;100535.16;;;11.25;100.00
49645;BME280;36494;50.730;-1.932;2024-02-15T06:03:03;100531.86;;;11.20;100.00
49645;BME280;36494;50.730;-1.932;2024-02-15T06:05:29;100532.91;;;11.12;100.00
49645;BME280;36494;50.730;-1.932;2024-02-15T06:07:54;100535.99;;;11.11;100.00
49645;BME280;36494;50.730;-1.932;2024-02-15T06:10:19;100539.41;;;11.10;100.00
49645;BME280;36494;50.730;-1.932;2024-02-15T06:12:45;100543.89;;;11.08;100.00
49645;BME280;36494;50.730;-1.932;2024-02-15T06:15:11;100539.89;;;11.01;100.00
49645;BME280;36494;50.730;-1.932;2024-02-15T06:17:37;100543.68;;;11.01;100.00
49645;BME280;36494;50.730;-1.932;2024-02-15T06:20:03;100549.43;;;10.93;100.00
49645;BME280;36494;50.730;-1.932;2024-02-15T06:22:27;100546.32;;;10.91;100.00
49645;BME280;36494;50.730;-1.932;2024-02-15T06:24:54;100538.46;;;10.90;100.00
49645;BME280;36494;50.730;-1.932;2024-02-15T06:27:19;100537.60;;;10.88;100.00
49645;BME280;36494;50.730;-1.932;2024-02-15T06:29:44;100538.44;;;10.86;100.00
49645;BME280;36494;50.730;-1.932;2024-02-15T06:32:09;100538.57;;;10.88;100.00
49645;BME280;36494;50.730;-1.932;2024-02-15T06:34:35;100539.12;;;10.96;100.00
49645;BME280;36494;50.730;-1.932;2024-02-15T06:37:01;100534.59;;;11.00;100.00
49645;BME280;36494;50.730;-1.932;2024-02-15T06:39:26;100539.03;;;11.05;100.00
49645;BME280;36494;50.730;-1.932;2024-02-15T06:41:51;100531.13;;;11.10;100.00
49645;BME280;36494;50.730;-1.932;2024-02-15T06:44:16;100531.46;;;11.11;100.00
49645;BME280;36494;50.730;-1.932;2024-02-15T06:46:41;100521.97;;;11.14;100.00
49645;BME280;36494;50.730;-1.932;2024-02-15T06:49:07;100527.95;;;11.13;100.00
49645;BME280;36494;50.730;-1.932;2024-02-15T06:51:32;100523.42;;;11.15;100.00
49645;BME280;36494;50.730;-1.932;2024-02-15T06:53:58;100522.75;;;11.17;100.00
49645;BME280;36494;50.730;-1.932;2024-02-15T06:56:23;100515.41;;;11.18;100.00
49645;BME280;36494;50.730;-1.932;2024-02-15T06:58:49;100505.81;;;11.18;100.00
49645;BME280;36494;50.730;-1.932;2024-02-15T07:01:17;100498.14;;;11.20;100.00
49645;BME280;36494;50.730;-1.932;2024-02-15T07:03:41;100504.54;;;11.18;100.00
49645;BME280;36494;50.730;-1.932;2024-02-15T07:06:07;100500.03;;;11.18;100.00
49645;BME280;36494;50.730;-1.932;2024-02-15T07:08:32;100497.85;;;11.18;100.00
49645;BME280;36494;50.730;-1.932;2024-02-15T07:10:58;100496.89;;;11.19;100.00
49645;BME280;36494;50.730;-1.932;2024-02-15T07:13:23;100496.39;;;11.18;100.00
49645;BME280;36494;50.730;-1.932;2024-02-15T07:15:48;100491.85;;;11.18;100.00
49645;BME280;36494;50.730;-1.932;2024-02-15T07:18:17;100488.67;;;11.18;100.00
49645;BME280;36494;50.730;-1.932;2024-02-15T07:20:39;100489.82;;;11.10;100.00
49645;BME280;36494;50.730;-1.932;2024-02-15T07:23:05;100489.50;;;11.14;100.00
49645;BME280;36494;50.730;-1.932;2024-02-15T07:25:32;100491.82;;;11.13;100.00
49645;BME280;36494;50.730;-1.932;2024-02-15T07:27:55;100490.96;;;11.12;100.00
49645;BME280;36494;50.730;-1.932;2024-02-15T07:30:21;100486.32;;;11.12;100.00
49645;BME280;36494;50.730;-1.932;2024-02-15T07:32:46;100478.28;;;11.12;100.00
49645;BME280;36494;50.730;-1.932;2024-02-15T07:35:12;100475.28;;;11.13;100.00
49645;BME280;36494;50.730;-1.932;2024-02-15T07:37:39;100471.90;;;11.08;100.00
49645;BME280;36494;50.730;-1.932;2024-02-15T07:40:04;100462.99;;;11.06;100.00
49645;BME280;36494;50.730;-1.932;2024-02-15T07:42:28;100460.59;;;10.97;100.00
49645;BME280;36494;50.730;-1.932;2024-02-15T07:44:53;100458.90;;;11.01;100.00
49645;BME280;36494;50.730;-1.932;2024-02-15T07:47:19;100453.40;;;11.04;100.00
49645;BME280;36494;50.730;-1.932;2024-02-15T07:49:46;100448.13;;;11.01;100.00
49645;BME280;36494;50.730;-1.932;2024-02-15T07:52:11;100443.51;;;11.02;100.00
49645;BME280;36494;50.730;-1.932;2024-02-15T07:54:36;100438.76;;;11.06;100.00
49645;BME280;36494;50.730;-1.932;2024-02-15T07:57:02;100429.41;;;11.01;100.00
49645;BME280;36494;50.730;-1.932;2024-02-15T07:59:27;100425.55;;;11.00;100.00
49645;BME280;36494;50.730;-1.932;2024-02-15T08:01:53;100423.59;;;10.99;100.00
49645;BME280;36494;50.730;-1.932;2024-02-15T08:04:19;100422.37;;;11.02;100.00
49645;BME280;36494;50.730;-1.932;2024-02-15T08:06:44;100421.86;;;11.03;100.00
49645;BME280;36494;50.730;-1.932;2024-02-15T08:09:09;100419.74;;;11.02;100.00
49645;BME280;36494;50.730;-1.932;2024-02-15T08:11:35;100413.80;;;10.96;100.00
49645;BME280;36494;50.730;-1.932;2024-02-15T08:14:00;100413.98;;;11.00;100.00
49645;BME280;36494;50.730;-1.932;2024-02-15T08:16:26;100424.49;;;10.94;100.00
49645;BME280;36494;50.730;-1.932;2024-02-15T08:18:51;100429.19;;;10.94;100.00
49645;BME280;36494;50.730;-1.932;2024-02-15T08:21:17;100427.68;;;10.96;100.00
49645;BME280;36494;50.730;-1.932;2024-02-15T08:23:43;100430.76;;;10.98;100.00
49645;BME280;36494;50.730;-1.932;2024-02-15T08:26:09;100432.80;;;10.96;100.00
49645;BME280;36494;50.730;-1.932;2024-02-15T08:28:35;100427.86;;;10.97;100.00
49645;BME280;36494;50.730;-1.932;2024-02-15T08:31:00;100428.30;;;10.94;100.00
49645;BME280;36494;50.730;-1.932;2024-02-15T08:33:26;100424.66;;;11.01;100.00
49645;BME280;36494;50.730;-1.932;2024-02-15T08:35:51;100414.91;;;10.97;100.00
49645;BME280;36494;50.730;-1.932;2024-02-15T08:38:17;100419.63;;;11.01;100.00
49645;BME280;36494;50.730;-1.932;2024-02-15T08:40:42;100418.06;;;11.04;100.00
49645;BME280;36494;50.730;-1.932;2024-02-15T08:43:08;100413.65;;;11.03;100.00
49645;BME280;36494;50.730;-1.932;2024-02-15T08:45:33;100404.50;;;11.04;100.00
49645;BME280;36494;50.730;-1.932;2024-02-15T08:47:59;100396.72;;;11.01;100.00
49645;BME280;36494;50.730;-1.932;2024-02-15T08:50:24;100398.31;;;11.04;100.00
49645;BME280;36494;50.730;-1.932;2024-02-15T08:52:50;100394.45;;;11.08;100.00
49645;BME280;36494;50.730;-1.932;2024-02-15T08:55:15;100389.73;;;11.13;100.00
49645;BME280;36494;50.730;-1.932;2024-02-15T08:57:40;100381.71;;;11.12;100.00
49645;BME280;36494;50.730;-1.932;2024-02-15T09:00:07;100386.12;;;11.11;100.00
49645;BME280;36494;50.730;-1.932;2024-02-15T09:02:31;100383.73;;;11.13;100.00
49645;BME280;36494;50.730;-1.932;2024-02-15T09:04:57;100384.44;;;11.16;100.00
49645;BME280;36494;50.730;-1.932;2024-02-15T09:07:23;100384.07;;;11.16;100.00
49645;BME280;36494;50.730;-1.932;2024-02-15T09:09:48;100379.01;;;11.21;100.00
49645;BME280;36494;50.730;-1.932;2024-02-15T09:12:14;100370.63;;;11.28;100.00
49645;BME280;36494;50.730;-1.932;2024-02-15T09:14:40;100367.66;;;11.31;100.00
49645;BME280;36494;50.730;-1.932;2024-02-15T09:17:05;100364.31;;;11.29;100.00
49645;BME280;36494;50.730;-1.932;2024-02-15T09:19:30;100366.99;;;11.33;100.00
49645;BME280;36494;50.730;-1.932;2024-02-15T09:21:56;100362.93;;;11.32;100.00
49645;BME280;36494;50.730;-1.932;2024-02-15T09:24:21;100362.13;;;11.37;100.00
49645;BME280;36494;50.730;-1.932;2024-02-15T09:26:48;100365.29;;;11.45;100.00
49645;BME280;36494;50.730;-1.932;2024-02-15T09:29:12;100364.01;;;11.48;100.00
49645;BME280;36494;50.730;-1.932;2024-02-15T09:31:37;100361.74;;;11.54;100.00
49645;BME280;36494;50.730;-1.932;2024-02-15T09:34:03;100361.72;;;11.58;100.00
49645;BME280;36494;50.730;-1.932;2024-02-15T09:36:28;100362.76;;;11.64;100.00
49645;BME280;36494;50.730;-1.932;2024-02-15T09:38:57;100369.54;;;11.69;100.00
49645;BME280;36494;50.730;-1.932;2024-02-15T09:41:19;100374.81;;;11.75;100.00
49645;BME280;36494;50.730;-1.932;2024-02-15T09:43:44;100371.49;;;11.82;100.00
49645;BME280;36494;50.730;-1.932;2024-02-15T09:46:12;100364.22;;;11.87;100.00
49645;BME280;36494;50.730;-1.932;2024-02-15T09:48:39;100359.49;;;11.93;100.00
49645;BME280;36494;50.730;-1.932;2024-02-15T09:51:02;100355.67;;;12.01;100.00
49645;BME280;36494;50.730;-1.932;2024-02-15T09:53:28;100351.71;;;12.07;100.00
49645;BME280;36494;50.730;-1.932;2024-02-15T09:55:53;100354.75;;;12.10;100.00
49645;BME280;36494;50.730;-1.932;2024-02-15T09:58:18;100359.41;;;12.14;100.00
49645;BME280;36494;50.730;-1.932;2024-02-15T10:00:44;100356.46;;;12.18;100.00
49645;BME280;36494;50.730;-1.932;2024-02-15T10:03:11;100350.71;;;12.15;100.00
49645;BME280;36494;50.730;-1.932;2024-02-15T10:05:34;100346.89;;;12.19;100.00
49645;BME280;36494;50.730;-1.932;2024-02-15T10:07:59;100342.81;;;12.21;100.00
49645;BME280;36494;50.730;-1.932;2024-02-15T10:10:25;100342.67;;;12.14;100.00
49645;BME280;36494;50.730;-1.932;2024-02-15T10:12:55;100341.77;;;12.11;100.00
49645;BME280;36494;50.730;-1.932;2024-02-15T10:17:41;100333.04;;;12.05;100.00
49645;BME280;36494;50.730;-1.932;2024-02-15T10:20:08;100329.40;;;12.03;100.00
49645;BME280;36494;50.730;-1.932;2024-02-15T10:22:33;100325.97;;;11.99;100.00
49645;BME280;36494;50.730;-1.932;2024-02-15T10:25:10;100325.38;;;11.97;100.00
49645;BME280;36494;50.730;-1.932;2024-02-15T10:27:24;100326.02;;;11.98;100.00
49645;BME280;36494;50.730;-1.932;2024-02-15T10:29:50;100320.92;;;11.96;100.00
49645;BME280;36494;50.730;-1.932;2024-02-15T10:32:15;100324.02;;;11.89;100.00
49645;BME280;36494;50.730;-1.932;2024-02-15T10:34:44;100321.81;;;11.83;100.00
49645;BME280;36494;50.730;-1.932;2024-02-15T10:37:11;100316.05;;;11.83;100.00
49645;BME280;36494;50.730;-1.932;2024-02-15T10:39:31;100322.74;;;11.83;100.00
49645;BME280;36494;50.730;-1.932;2024-02-15T10:41:57;100316.64;;;11.82;100.00
49645;BME280;36494;50.730;-1.932;2024-02-15T10:44:24;100317.41;;;11.94;100.00
49645;BME280;36494;50.730;-1.932;2024-02-15T10:46:49;100320.43;;;11.90;100.00
49645;BME280;36494;50.730;-1.932;2024-02-15T10:49:14;100320.64;;;11.94;100.00
49645;BME280;36494;50.730;-1.932;2024-02-15T10:51:43;100316.92;;;11.99;100.00
49645;BME280;36494;50.730;-1.932;2024-02-15T10:54:07;100311.97;;;12.02;100.00
49645;BME280;36494;50.730;-1.932;2024-02-15T10:56:34;100312.46;;;12.05;100.00
49645;BME280;36494;50.730;-1.932;2024-02-15T10:59:00;100310.16;;;12.06;100.00
49645;BME280;36494;50.730;-1.932;2024-02-15T11:01:23;100308.04;;;12.03;100.00
49645;BME280;36494;50.730;-1.932;2024-02-15T11:03:51;100315.05;;;12.09;100.00
49645;BME280;36494;50.730;-1.932;2024-02-15T11:06:12;100318.01;;;12.13;100.00
49645;BME280;36494;50.730;-1.932;2024-02-15T11:08:38;100317.72;;;12.17;100.00
49645;BME280;36494;50.730;-1.932;2024-02-15T11:11:03;100317.28;;;12.20;100.00
49645;BME280;36494;50.730;-1.932;2024-02-15T11:13:28;100316.42;;;12.25;100.00
49645;BME280;36494;50.730;-1.932;2024-02-15T11:15:54;100316.33;;;12.47;100.00
49645;BME280;36494;50.730;-1.932;2024-02-15T11:20:46;100307.03;;;12.66;100.00
49645;BME280;36494;50.730;-1.932;2024-02-15T11:23:11;100304.22;;;12.74;100.00
49645;BME280;36494;50.730;-1.932;2024-02-15T11:25:38;100302.65;;;12.66;100.00
49645;BME280;36494;50.730;-1.932;2024-02-15T11:30:32;100297.86;;;12.90;100.00
49645;BME280;36494;50.730;-1.932;2024-02-15T11:32:54;100292.64;;;12.96;100.00
49645;BME280;36494;50.730;-1.932;2024-02-15T11:35:19;100294.37;;;13.09;100.00
49645;BME280;36494;50.730;-1.932;2024-02-15T11:37:52;100287.07;;;13.36;100.00
49645;BME280;36494;50.730;-1.932;2024-02-15T11:40:10;100290.49;;;13.67;100.00
49645;BME280;36494;50.730;-1.932;2024-02-15T11:42:35;100281.11;;;13.64;100.00
49645;BME280;36494;50.730;-1.932;2024-02-15T11:45:03;100282.00;;;13.69;100.00
49645;BME280;36494;50.730;-1.932;2024-02-15T11:47:27;100276.24;;;13.54;100.00
49645;BME280;36494;50.730;-1.932;2024-02-15T11:49:54;100277.44;;;13.69;100.00
49645;BME280;36494;50.730;-1.932;2024-02-15T11:52:17;100275.02;;;13.69;100.00
49645;BME280;36494;50.730;-1.932;2024-02-15T11:54:42;100270.37;;;14.01;100.00
49645;BME280;36494;50.730;-1.932;2024-02-15T11:57:08;100268.79;;;13.78;100.00
49645;BME280;36494;50.730;-1.932;2024-02-15T11:59:40;100264.59;;;13.83;100.00
49645;BME280;36494;50.730;-1.932;2024-02-15T12:02:03;100264.04;;;13.76;100.00
49645;BME280;36494;50.730;-1.932;2024-02-15T12:04:24;100267.23;;;13.93;100.00
49645;BME280;36494;50.730;-1.932;2024-02-15T12:06:50;100265.79;;;14.12;100.00
49645;BME280;36494;50.730;-1.932;2024-02-15T12:09:18;100263.56;;;14.06;100.00
49645;BME280;36494;50.730;-1.932;2024-02-15T12:11:41;100264.38;;;14.22;100.00
49645;BME280;36494;50.730;-1.932;2024-02-15T12:14:12;100258.09;;;14.04;100.00
49645;BME280;36494;50.730;-1.932;2024-02-15T12:16:32;100257.51;;;13.93;100.00
49645;BME280;36494;50.730;-1.932;2024-02-15T12:18:58;100251.66;;;14.08;100.00
49645;BME280;36494;50.730;-1.932;2024-02-15T12:21:25;100240.87;;;14.03;100.00
49645;BME280;36494;50.730;-1.932;2024-02-15T12:23:49;100237.92;;;14.10;100.00
49645;BME280;36494;50.730;-1.932;2024-02-15T12:26:18;100234.14;;;14.06;100.00
49645;BME280;36494;50.730;-1.932;2024-02-15T12:28:40;100232.08;;;14.10;100.00